Flight Track Log - Related Links

Times and Time Zones

All times are in EDT time to prevent confusion due to time zone crossing. See the KAP644 flight status page for this flight to view local times or setup timezone preferences in your user account.

Time Position Orientation Groundspeed Altitude Reporting Facility
EDT Latitude Longitude Course Direction KTS MPH feet Rate Location/Type
Wed 08:03:48 AM 42.3667 -71.0167 180° South 113 130 400  Level KA90
Wed 08:04:36 AM 42.3333 -71.0167 180° South 117 135 1,200 950 Climbing KA90
Wed 08:05:48 AM 42.2833 -71.0333 194° South 129 148 2,300 810 Climbing KA90
Wed 08:06:42 AM 42.2667 -71.0500 217° Southwest 130 150 2,900 632 Climbing KA90
Wed 08:07:42 AM 42.2167 -71.0500 180° South 139 160 3,500 579 Climbing KA90
Wed 08:08:36 AM 42.2000 -71.0167 124° Southeast 155 178 4,000 632 Climbing KA90
Wed 08:09:36 AM 42.1667 -70.9833 143° Southeast 155 178 4,700 700 Climbing KA90
Wed 08:11:00 AM 42.1133 -70.9575 166° South  Level Estimated
Wed 08:18:00 AM 41.8593 -70.7906 161° South  Level FlightAware Approximate
Wed 08:19:00 AM 41.8210 -70.7731 161° South  Level FlightAware Approximate
Wed 08:20:00 AM 41.7826 -70.7557 161° South  Level FlightAware Approximate
Wed 08:21:00 AM 41.7443 -70.7383 161° South  Level FlightAware Approximate
Wed 08:22:00 AM 41.7055 -70.7229 164° South  Level FlightAware Approximate
Wed 08:23:00 AM 41.6665 -70.7083 164° South  Level FlightAware Approximate
Wed 08:24:00 AM 41.6275 -70.6936 164° South  Level FlightAware Approximate
Wed 08:25:00 AM 41.5886 -70.6790 164° South  Level FlightAware Approximate
Wed 08:26:00 AM 41.5496 -70.6644 164° South  Level FlightAware Approximate
Wed 08:27:00 AM 41.5106 -70.6498 164° South  Level FlightAware Approximate
Wed 08:28:00 AM 41.4716 -70.6352 164° South  Level FlightAware Approximate
Wed 08:29:00 AM 41.4328 -70.6198 163° South  Level FlightAware Approximate
Wed 08:30:00 AM 41.3941 -70.6043 163° South  Level FlightAware Approximate
Wed 08:31:00 AM 41.3833 -70.6000 163° South  Level FlightAware Approximate
Wed 08:32:00 AM 41.3934 -70.6139 163° South  Level Estimated
Wed 08:33:00 AM 41.3934 -70.6139 163° South  Level Estimated

Login

Don't have an account? Register now (free) for customized features, flight alerts, and more!